YDT weather

Boundary Bay Airport
Vancouver, British Columbia, Canada

Public forecast

Using degrees Celsius for public forecast. Weather courtesy of forecast.io.

Closest aviation weather report (METAR) to Boundary Bay Airport

Closest report is Vancouver International Airport, 9.9 nm (18.3 km) NW. Retrieved 2019/11/13 11:09 UTC (19 minutes ago):

CYVR 131109Z 30002KT 1/2SM R08R/P6000FT/N -DZ FG OVC002 09/09 A3019 RMK FG6ST2 SLP225

Closest aviation forecast (TAF) to Boundary Bay Airport

Closest forecast is Vancouver International Airport, 9.9 nm (18.3 km) NW. Retrieved 2019/11/13 09:39 UTC (2 hours ago):

TAF CYVR 130838Z 1309/1412 09005KT 3SM BR SCT003 OVC010 TEMPO 1309/1316 1/2SM -DZ FG OVC003 FM131600 08006KT P6SM FEW015 SCT030 TEMPO 1316/1318 3SM BR SCT008 BKN015 OVC030 FM131800 30006KT P6SM FEW025 SCT200 FM140600 VRB03KT P6SM FEW005 BKN150 RMK NXT FCST BY 131200Z